createdAt,value
2023-12-08T00:04:45.435Z,95470.75
2023-12-08T00:09:47.024Z,95467.84
2023-12-08T00:14:48.676Z,95468.66
2023-12-08T00:19:50.312Z,95444.34
2023-12-08T00:24:51.961Z,95422.72
2023-12-08T00:29:53.641Z,95407.19
2023-12-08T00:34:56.034Z,95396.78
2023-12-08T00:39:57.645Z,95408.69
2023-12-08T00:44:59.280Z,95403.75
2023-12-08T00:50:01.172Z,95411.78
2023-12-08T00:55:02.766Z,95418.00
2023-12-08T01:00:05.467Z,95413.91
2023-12-08T01:05:07.297Z,95408.31
2023-12-08T01:10:08.899Z,95401.78
2023-12-08T01:15:10.644Z,95412.06
2023-12-08T01:20:12.288Z,95416.72
2023-12-08T01:25:14.291Z,95420.94
2023-12-08T01:30:15.962Z,95425.47
2023-12-08T01:35:17.612Z,95429.78
2023-12-08T01:40:19.220Z,95397.50
2023-12-08T01:45:20.750Z,95348.94
2023-12-08T01:50:22.332Z,95322.91
2023-12-08T01:55:23.877Z,95355.00
2023-12-08T02:00:26.101Z,95392.25
2023-12-08T02:05:27.759Z,95356.97
2023-12-08T02:10:29.663Z,95337.59
2023-12-08T02:15:31.253Z,95333.44
2023-12-08T02:20:33.301Z,95329.69
2023-12-08T02:25:36.009Z,95333.88
2023-12-08T02:30:37.618Z,95368.81
2023-12-08T02:35:40.722Z,95356.88
2023-12-08T02:40:42.315Z,95373.66
2023-12-08T02:45:43.956Z,95360.56
2023-12-08T02:50:45.596Z,95358.81
2023-12-08T02:55:47.165Z,95344.56
2023-12-08T03:00:48.817Z,95344.69
2023-12-08T03:05:51.572Z,95351.19
2023-12-08T03:10:53.182Z,95343.78
2023-12-08T03:15:54.756Z,95343.28
2023-12-08T03:20:56.324Z,95352.56
2023-12-08T03:25:57.939Z,95338.91
2023-12-08T03:30:59.492Z,95332.38
2023-12-08T03:36:01.424Z,95325.72
2023-12-08T03:41:03.124Z,95345.72
2023-12-08T03:46:06.284Z,95337.50
2023-12-08T03:51:07.955Z,95337.38
2023-12-08T03:56:09.747Z,95322.59
2023-12-08T04:01:17.436Z,95323.41
2023-12-08T04:06:19.103Z,95318.53
2023-12-08T04:11:20.758Z,95333.56
2023-12-08T04:16:22.387Z,95322.47
2023-12-08T04:21:23.951Z,95345.97
2023-12-08T04:26:28.598Z,95337.13
2023-12-08T04:31:30.248Z,95320.47
2023-12-08T04:36:31.811Z,95343.63
2023-12-08T04:41:33.420Z,95349.66
2023-12-08T04:46:35.076Z,95363.38
2023-12-08T04:51:36.803Z,95370.59
2023-12-08T04:56:38.417Z,95374.44
2023-12-08T05:01:39.998Z,95373.13
2023-12-08T05:06:41.682Z,95362.47
2023-12-08T05:11:43.305Z,95368.63
2023-12-08T05:16:44.886Z,95373.25
2023-12-08T05:21:46.475Z,95362.09
2023-12-08T05:26:48.708Z,95347.81
2023-12-08T05:31:50.312Z,95354.00
2023-12-08T05:36:51.901Z,95360.88
2023-12-08T05:41:53.507Z,95361.41
2023-12-08T05:46:56.617Z,95359.66
2023-12-08T05:51:59.347Z,95360.16
2023-12-08T05:57:01.023Z,95352.31
2023-12-08T06:02:22.545Z,95352.69
2023-12-08T06:07:24.412Z,95357.13
2023-12-08T06:12:26.255Z,95361.66
2023-12-08T06:17:28.431Z,95374.31
2023-12-08T06:22:30.125Z,95372.13
2023-12-08T06:27:31.738Z,95359.34
2023-12-08T06:32:33.296Z,95359.72
2023-12-08T06:37:34.879Z,95368.13
2023-12-08T06:42:36.469Z,95346.22
2023-12-08T06:47:38.180Z,95348.84
2023-12-08T06:52:39.900Z,95345.06
2023-12-08T06:57:41.524Z,95339.16
2023-12-08T07:02:43.922Z,95335.81
2023-12-08T07:07:45.837Z,95345.53
2023-12-08T07:12:47.875Z,95345.13
2023-12-08T07:17:49.566Z,95343.78
2023-12-08T07:22:51.215Z,95344.19
2023-12-08T07:27:52.856Z,95356.81
2023-12-08T07:32:54.642Z,95357.25
2023-12-08T07:37:56.534Z,95353.38
2023-12-08T07:42:58.176Z,95359.88
2023-12-08T07:47:59.854Z,95361.94
2023-12-08T07:53:01.617Z,95377.09
2023-12-08T07:58:03.403Z,95376.00
2023-12-08T08:03:06.368Z,95372.53
2023-12-08T08:08:08.288Z,95377.53
2023-12-08T08:13:10.805Z,95389.34
2023-12-08T08:18:12.420Z,95387.16
2023-12-08T08:23:14.042Z,95386.25
2023-12-08T08:28:15.788Z,95388.13
2023-12-08T08:33:17.413Z,95392.63
2023-12-08T08:38:19.127Z,95393.47
2023-12-08T08:43:21.179Z,95402.00
2023-12-08T08:48:22.908Z,95407.56
2023-12-08T08:53:24.546Z,95411.13
2023-12-08T08:58:26.803Z,95409.06
2023-12-08T09:03:28.596Z,95400.53
2023-12-08T09:08:30.252Z,95398.63
2023-12-08T09:13:32.834Z,95410.03
2023-12-08T09:18:34.829Z,95411.25
2023-12-08T09:23:36.622Z,95410.69
2023-12-08T09:28:38.303Z,95423.34
2023-12-08T09:33:43.113Z,95424.28
2023-12-08T09:38:44.995Z,95420.44
2023-12-08T09:43:50.651Z,95418.91
2023-12-08T09:48:52.531Z,95422.88
2023-12-08T09:53:54.229Z,95421.34
2023-12-08T09:58:55.848Z,95421.28
2023-12-08T10:03:57.440Z,95414.44
2023-12-08T10:08:59.052Z,95410.41
2023-12-08T10:14:01.598Z,95408.00
2023-12-08T10:19:07.157Z,95407.28
2023-12-08T10:24:09.616Z,95406.19
2023-12-08T10:29:11.845Z,95400.63
2023-12-08T10:34:14.905Z,95399.06
2023-12-08T10:39:18.424Z,95406.50
2023-12-08T10:44:24.819Z,95398.03
2023-12-08T10:49:27.917Z,95395.91
2023-12-08T10:54:29.526Z,95405.28
2023-12-08T10:59:31.136Z,95402.03
2023-12-08T11:04:33.100Z,95401.09
2023-12-08T11:09:36.505Z,95402.34
2023-12-08T11:14:39.542Z,95403.06
2023-12-08T11:19:41.794Z,95395.16
2023-12-08T11:24:43.466Z,95405.22
2023-12-08T11:29:51.322Z,95399.16
2023-12-08T11:34:57.940Z,95399.03
2023-12-08T11:40:12.416Z,95405.31
2023-12-08T11:45:14.286Z,95400.56
2023-12-08T11:50:16.211Z,95398.69
2023-12-08T11:55:27.906Z,95395.13
2023-12-08T12:00:35.172Z,95391.94
2023-12-08T12:05:37.383Z,95394.75
2023-12-08T12:10:39.432Z,95400.63
2023-12-08T12:15:42.220Z,95395.78
2023-12-08T12:20:43.881Z,95390.78
2023-12-08T12:25:48.307Z,95396.81
2023-12-08T12:30:49.973Z,95396.44
2023-12-08T12:35:54.463Z,95382.63
2023-12-08T12:41:24.633Z,95381.78
2023-12-08T12:46:29.420Z,95387.47
2023-12-08T12:51:38.121Z,95387.78
2023-12-08T12:56:50.333Z,95385.47
2023-12-08T13:01:51.960Z,95382.63
2023-12-08T13:06:53.653Z,95387.09
2023-12-08T13:11:55.250Z,95393.72
2023-12-08T13:16:58.593Z,95389.00
2023-12-08T13:22:00.238Z,95396.56
2023-12-08T13:27:01.854Z,95399.25
2023-12-08T13:32:05.879Z,95404.88
2023-12-08T13:37:07.497Z,95407.09
2023-12-08T13:42:09.231Z,95404.81
2023-12-08T13:47:10.906Z,95410.44
2023-12-08T13:52:12.510Z,95410.66
2023-12-08T13:57:14.183Z,95420.25
2023-12-08T14:02:15.863Z,95433.06
2023-12-08T14:07:17.530Z,95431.06
2023-12-08T14:12:19.191Z,95437.06
2023-12-08T14:17:20.815Z,95436.72
2023-12-08T14:22:22.473Z,95445.44
2023-12-08T14:27:24.272Z,95456.84
2023-12-08T14:32:25.998Z,95460.91
2023-12-08T14:37:27.917Z,95462.69
2023-12-08T14:42:30.499Z,95474.75
2023-12-08T14:47:32.210Z,95483.19
2023-12-08T14:52:33.828Z,95483.19
2023-12-08T14:57:35.403Z,95480.59
2023-12-08T15:02:37.505Z,95485.69
2023-12-08T15:07:39.221Z,95493.84
2023-12-08T15:12:40.825Z,95499.16
2023-12-08T15:17:42.584Z,95507.31
2023-12-08T15:22:44.319Z,95512.63
2023-12-08T15:27:45.912Z,95506.94
2023-12-08T15:32:48.111Z,95510.03
2023-12-08T15:37:50.331Z,95520.69
2023-12-08T15:42:51.916Z,95522.91
2023-12-08T15:47:53.679Z,95520.97
2023-12-08T15:52:55.329Z,95529.19
2023-12-08T15:57:57.165Z,95536.81
2023-12-08T16:02:58.783Z,95532.59
2023-12-08T16:08:00.513Z,95538.72
2023-12-08T16:13:02.076Z,95540.44
2023-12-08T16:18:03.881Z,95543.72
2023-12-08T16:23:05.803Z,95545.78
2023-12-08T16:28:07.394Z,95556.50
2023-12-08T16:33:09.126Z,95549.84
2023-12-08T16:38:10.717Z,95557.31
2023-12-08T16:43:12.287Z,95565.22
2023-12-08T16:48:14.026Z,95568.63
2023-12-08T16:53:15.807Z,95574.53
2023-12-08T16:58:17.392Z,95580.81
2023-12-08T17:03:20.113Z,95588.88
2023-12-08T17:08:21.817Z,95587.47
2023-12-08T17:13:23.429Z,95587.34
2023-12-08T17:18:25.238Z,95591.25
2023-12-08T17:23:27.404Z,95591.94
2023-12-08T17:28:28.977Z,95602.34
2023-12-08T17:33:30.779Z,95604.25
2023-12-08T17:38:33.222Z,95608.03
2023-12-08T17:43:35.140Z,95612.88
2023-12-08T17:48:36.949Z,95616.00
2023-12-08T17:53:38.641Z,95629.59
2023-12-08T17:58:42.901Z,95631.97
2023-12-08T18:03:44.634Z,95640.78
2023-12-08T18:08:46.347Z,95639.06
2023-12-08T18:13:47.972Z,95639.59
2023-12-08T18:18:49.796Z,95646.41
2023-12-08T18:23:51.487Z,95651.44
2023-12-08T18:33:58.748Z,95659.44
2023-12-08T18:39:00.735Z,95667.94
2023-12-08T18:44:02.330Z,95657.19
2023-12-08T18:49:05.134Z,95665.25
2023-12-08T18:54:07.362Z,95675.66
2023-12-08T18:59:09.019Z,95678.91
2023-12-08T19:04:10.594Z,95678.09
2023-12-08T19:09:12.255Z,95688.97
2023-12-08T19:14:13.854Z,95689.28
2023-12-08T19:19:15.543Z,95699.78
2023-12-08T19:24:17.236Z,95693.06
2023-12-08T19:29:18.842Z,95705.34
2023-12-08T19:34:20.584Z,95707.63
2023-12-08T19:39:22.226Z,95720.44
2023-12-08T19:44:23.825Z,95717.94
2023-12-08T19:49:25.975Z,95716.22
2023-12-08T19:54:29.331Z,95717.72
2023-12-08T19:59:31.042Z,95722.38
2023-12-08T20:04:32.714Z,95726.31
2023-12-08T20:09:34.604Z,95725.09
2023-12-08T20:14:37.827Z,95733.31
2023-12-08T20:19:39.859Z,95736.84
2023-12-08T20:24:41.470Z,95737.75
2023-12-08T20:29:43.041Z,95748.38
2023-12-08T20:34:44.908Z,95762.19
2023-12-08T20:39:46.733Z,95772.53
2023-12-08T20:44:48.351Z,95774.03
2023-12-08T20:49:50.165Z,95781.22
2023-12-08T20:54:51.795Z,95783.16
2023-12-08T20:59:53.551Z,95785.34
2023-12-08T21:04:55.108Z,95783.03
2023-12-08T21:09:56.662Z,95806.22
2023-12-08T21:14:58.847Z,95805.25
2023-12-08T21:20:00.611Z,95808.69
2023-12-08T21:25:02.441Z,95809.38
2023-12-08T21:30:04.718Z,95808.94
2023-12-08T21:35:06.844Z,95818.50
2023-12-08T21:40:09.368Z,95820.41
2023-12-08T21:45:11.852Z,95816.03
2023-12-08T21:50:14.014Z,95820.28
2023-12-08T21:55:15.594Z,95828.59
2023-12-08T22:00:17.765Z,95829.16
2023-12-08T22:05:19.649Z,95832.97
2023-12-08T22:10:21.231Z,95835.03
2023-12-08T22:15:22.949Z,95846.47
2023-12-08T22:20:24.934Z,95849.31
2023-12-08T22:25:26.619Z,95852.47
2023-12-08T22:30:28.311Z,95854.94
2023-12-08T22:35:29.908Z,95861.75
2023-12-08T22:40:31.527Z,95863.66
2023-12-08T22:45:33.221Z,95868.56
2023-12-08T22:50:43.259Z,95870.59
2023-12-08T22:55:50.369Z,95876.34
2023-12-08T23:00:51.938Z,95873.19
2023-12-08T23:05:53.578Z,95877.69
2023-12-08T23:10:55.171Z,95886.81
2023-12-08T23:15:56.985Z,95878.78
2023-12-08T23:20:58.854Z,95886.56
2023-12-08T23:26:02.941Z,95884.09
2023-12-08T23:31:05.927Z,95883.56
2023-12-08T23:36:09.137Z,95882.47
2023-12-08T23:41:10.786Z,95876.72
2023-12-08T23:46:12.354Z,95886.41
2023-12-08T23:51:14.055Z,95883.66
2023-12-08T23:56:15.668Z,95883.41
